sensor_id;sensor_type;location;lat;lon;timestamp;pressure;altitude;pressure_sealevel;temperature;humidity
73240;BME280;61452;40.054;4.110;2023-10-09T00:00:35;102664.97;;;24.23;100.00
73240;BME280;61452;40.054;4.110;2023-10-09T00:05:40;102664.00;;;24.24;100.00
73240;BME280;61452;40.054;4.110;2023-10-09T00:10:49;102660.44;;;24.24;100.00
73240;BME280;61452;40.054;4.110;2023-10-09T00:16:08;102666.78;;;24.23;100.00
73240;BME280;61452;40.054;4.110;2023-10-09T00:21:17;102660.66;;;24.21;100.00
73240;BME280;61452;40.054;4.110;2023-10-09T00:26:22;102663.25;;;24.22;100.00
73240;BME280;61452;40.054;4.110;2023-10-09T00:31:25;102662.63;;;24.18;100.00
73240;BME280;61452;40.054;4.110;2023-10-09T00:36:35;102659.97;;;24.18;100.00
73240;BME280;61452;40.054;4.110;2023-10-09T00:41:53;102653.47;;;24.21;100.00
73240;BME280;61452;40.054;4.110;2023-10-09T00:46:56;102649.94;;;24.21;100.00
73240;BME280;61452;40.054;4.110;2023-10-09T00:52:09;102651.78;;;24.20;100.00
73240;BME280;61452;40.054;4.110;2023-10-09T00:57:20;102645.66;;;24.18;100.00
73240;BME280;61452;40.054;4.110;2023-10-09T01:02:27;102636.75;;;24.17;100.00
73240;BME280;61452;40.054;4.110;2023-10-09T01:07:45;102635.03;;;24.16;100.00
73240;BME280;61452;40.054;4.110;2023-10-09T01:12:48;102629.56;;;24.18;100.00
73240;BME280;61452;40.054;4.110;2023-10-09T01:17:57;102624.31;;;24.16;100.00
73240;BME280;61452;40.054;4.110;2023-10-09T01:23:02;102627.00;;;24.16;100.00
73240;BME280;61452;40.054;4.110;2023-10-09T01:28:04;102625.16;;;24.17;100.00
73240;BME280;61452;40.054;4.110;2023-10-09T01:33:09;102611.00;;;24.15;100.00
73240;BME280;61452;40.054;4.110;2023-10-09T01:38:25;102606.63;;;24.14;100.00
73240;BME280;61452;40.054;4.110;2023-10-09T01:43:43;102620.88;;;24.14;100.00
73240;BME280;61452;40.054;4.110;2023-10-09T01:48:46;102618.19;;;24.14;100.00
73240;BME280;61452;40.054;4.110;2023-10-09T01:53:49;102613.94;;;24.12;100.00
73240;BME280;61452;40.054;4.110;2023-10-09T01:58:58;102614.81;;;24.12;100.00
73240;BME280;61452;40.054;4.110;2023-10-09T02:04:07;102618.56;;;24.10;100.00
73240;BME280;61452;40.054;4.110;2023-10-09T02:09:16;102611.38;;;24.10;100.00
73240;BME280;61452;40.054;4.110;2023-10-09T02:14:29;102605.16;;;24.10;100.00
73240;BME280;61452;40.054;4.110;2023-10-09T02:19:31;102600.53;;;24.12;100.00
73240;BME280;61452;40.054;4.110;2023-10-09T02:24:36;102606.13;;;24.09;100.00
73240;BME280;61452;40.054;4.110;2023-10-09T02:29:52;102605.41;;;24.07;100.00
73240;BME280;61452;40.054;4.110;2023-10-09T02:34:55;102602.59;;;24.08;100.00
73240;BME280;61452;40.054;4.110;2023-10-09T02:39:57;102602.59;;;24.08;100.00
73240;BME280;61452;40.054;4.110;2023-10-09T02:45:05;102609.91;;;24.06;100.00
73240;BME280;61452;40.054;4.110;2023-10-09T02:50:12;102614.28;;;24.07;100.00
73240;BME280;61452;40.054;4.110;2023-10-09T02:55:21;102611.47;;;24.09;100.00
73240;BME280;61452;40.054;4.110;2023-10-09T03:00:27;102610.88;;;24.05;100.00
73240;BME280;61452;40.054;4.110;2023-10-09T03:05:34;102607.34;;;24.05;100.00
73240;BME280;61452;40.054;4.110;2023-10-09T03:10:45;102613.56;;;24.05;100.00
73240;BME280;61452;40.054;4.110;2023-10-09T03:15:47;102626.00;;;24.06;100.00
73240;BME280;61452;40.054;4.110;2023-10-09T03:20:50;102623.31;;;24.06;100.00
73240;BME280;61452;40.054;4.110;2023-10-09T03:25:52;102619.88;;;24.04;100.00
73240;BME280;61452;40.054;4.110;2023-10-09T03:31:04;102620.75;;;24.05;100.00
73240;BME280;61452;40.054;4.110;2023-10-09T03:36:09;102619.88;;;24.04;100.00
73240;BME280;61452;40.054;4.110;2023-10-09T03:41:11;102611.09;;;24.02;100.00
73240;BME280;61452;40.054;4.110;2023-10-09T03:46:18;102624.41;;;24.04;100.00
73240;BME280;61452;40.054;4.110;2023-10-09T03:51:24;102618.44;;;24.00;100.00
73240;BME280;61452;40.054;4.110;2023-10-09T03:56:28;102619.13;;;24.02;100.00
73240;BME280;61452;40.054;4.110;2023-10-09T04:01:30;102615.59;;;24.02;100.00
73240;BME280;61452;40.054;4.110;2023-10-09T04:06:40;102617.44;;;24.01;100.00
73240;BME280;61452;40.054;4.110;2023-10-09T04:11:42;102616.59;;;24.01;100.00
73240;BME280;61452;40.054;4.110;2023-10-09T04:16:45;102623.78;;;24.00;100.00
73240;BME280;61452;40.054;4.110;2023-10-09T04:21:53;102613.06;;;24.00;100.00
73240;BME280;61452;40.054;4.110;2023-10-09T04:26:57;102607.91;;;23.97;100.00
73240;BME280;61452;40.054;4.110;2023-10-09T04:32:00;102606.94;;;23.98;100.00
73240;BME280;61452;40.054;4.110;2023-10-09T04:37:02;102608.78;;;23.98;100.00
73240;BME280;61452;40.054;4.110;2023-10-09T04:42:28;102610.50;;;23.99;100.00
73240;BME280;61452;40.054;4.110;2023-10-09T04:47:53;102609.63;;;23.98;100.00
73240;BME280;61452;40.054;4.110;2023-10-09T04:53:08;102617.69;;;23.98;100.00
73240;BME280;61452;40.054;4.110;2023-10-09T04:58:17;102613.28;;;23.97;100.00
73240;BME280;61452;40.054;4.110;2023-10-09T05:03:25;102618.66;;;23.97;100.00
73240;BME280;61452;40.054;4.110;2023-10-09T05:08:45;102624.09;;;23.96;100.00
73240;BME280;61452;40.054;4.110;2023-10-09T05:13:48;102623.41;;;23.94;100.00
73240;BME280;61452;40.054;4.110;2023-10-09T05:18:59;102623.25;;;23.95;100.00
73240;BME280;61452;40.054;4.110;2023-10-09T05:24:05;102628.63;;;23.95;100.00
73240;BME280;61452;40.054;4.110;2023-10-09T05:29:19;102629.47;;;23.96;100.00
73240;BME280;61452;40.054;4.110;2023-10-09T05:34:25;102630.44;;;23.95;100.00
73240;BME280;61452;40.054;4.110;2023-10-09T05:39:36;102635.09;;;23.93;100.00
73240;BME280;61452;40.054;4.110;2023-10-09T05:44:45;102643.13;;;23.93;100.00
73240;BME280;61452;40.054;4.110;2023-10-09T05:50:06;102656.63;;;23.91;100.00
73240;BME280;61452;40.054;4.110;2023-10-09T05:55:15;102651.28;;;23.91;100.00
73240;BME280;61452;40.054;4.110;2023-10-09T06:00:26;102652.25;;;23.90;100.00
73240;BME280;61452;40.054;4.110;2023-10-09T06:05:51;102657.59;;;23.90;100.00
73240;BME280;61452;40.054;4.110;2023-10-09T06:11:03;102658.47;;;23.91;100.00
73240;BME280;61452;40.054;4.110;2023-10-09T06:16:29;102659.31;;;23.91;100.00
73240;BME280;61452;40.054;4.110;2023-10-09T06:21:43;102659.22;;;23.93;100.00
73240;BME280;61452;40.054;4.110;2023-10-09T06:26:54;102655.78;;;23.91;100.00
73240;BME280;61452;40.054;4.110;2023-10-09T06:32:03;102653.09;;;23.91;100.00
73240;BME280;61452;40.054;4.110;2023-10-09T06:37:28;102671.88;;;23.91;100.00
73240;BME280;61452;40.054;4.110;2023-10-09T06:42:33;102672.72;;;23.91;100.00
73240;BME280;61452;40.054;4.110;2023-10-09T06:47:36;102673.69;;;23.90;100.00
73240;BME280;61452;40.054;4.110;2023-10-09T06:52:44;102684.31;;;23.92;100.00
73240;BME280;61452;40.054;4.110;2023-10-09T06:58:10;102690.53;;;23.92;100.00
73240;BME280;61452;40.054;4.110;2023-10-09T07:03:17;102702.09;;;23.93;100.00
73240;BME280;61452;40.054;4.110;2023-10-09T07:08:22;102704.03;;;23.91;100.00
73240;BME280;61452;40.054;4.110;2023-10-09T07:13:39;102707.56;;;23.91;100.00
73240;BME280;61452;40.054;4.110;2023-10-09T07:18:41;102710.13;;;23.93;100.00
73240;BME280;61452;40.054;4.110;2023-10-09T07:23:51;102705.63;;;23.93;100.00
73240;BME280;61452;40.054;4.110;2023-10-09T07:28:58;102719.16;;;23.92;100.00
73240;BME280;61452;40.054;4.110;2023-10-09T07:34:18;102717.31;;;23.92;100.00
73240;BME280;61452;40.054;4.110;2023-10-09T07:39:39;102724.25;;;23.95;100.00
73240;BME280;61452;40.054;4.110;2023-10-09T07:44:51;102733.31;;;23.94;100.00
73240;BME280;61452;40.054;4.110;2023-10-09T07:49:58;102740.50;;;23.93;100.00
73240;BME280;61452;40.054;4.110;2023-10-09T07:55:01;102744.03;;;23.94;100.00
73240;BME280;61452;40.054;4.110;2023-10-09T08:00:05;102753.75;;;23.95;100.00
73240;BME280;61452;40.054;4.110;2023-10-09T08:05:25;102746.56;;;23.95;100.00
73240;BME280;61452;40.054;4.110;2023-10-09T08:10:39;102758.16;;;23.96;100.00
73240;BME280;61452;40.054;4.110;2023-10-09T08:15:59;102752.16;;;23.92;100.00
73240;BME280;61452;40.054;4.110;2023-10-09T08:21:06;102754.63;;;23.95;100.00
73240;BME280;61452;40.054;4.110;2023-10-09T08:26:09;102753.88;;;23.93;100.00
73240;BME280;61452;40.054;4.110;2023-10-09T08:31:19;102754.63;;;23.95;100.00
73240;BME280;61452;40.054;4.110;2023-10-09T08:36:36;102763.41;;;23.97;100.00
73240;BME280;61452;40.054;4.110;2023-10-09T08:41:39;102764.38;;;23.96;100.00
73240;BME280;61452;40.054;4.110;2023-10-09T08:46:42;102762.56;;;23.97;100.00
73240;BME280;61452;40.054;4.110;2023-10-09T08:51:45;102763.41;;;23.97;100.00
73240;BME280;61452;40.054;4.110;2023-10-09T08:56:49;102764.28;;;23.98;100.00
73240;BME280;61452;40.054;4.110;2023-10-09T09:01:52;102762.44;;;23.98;100.00
73240;BME280;61452;40.054;4.110;2023-10-09T09:06:54;102759.75;;;23.98;100.00
73240;BME280;61452;40.054;4.110;2023-10-09T09:11:57;102759.88;;;23.97;100.00
73240;BME280;61452;40.054;4.110;2023-10-09T09:17:03;102749.91;;;23.99;100.00
73240;BME280;61452;40.054;4.110;2023-10-09T09:22:07;102758.03;;;23.97;100.00
73240;BME280;61452;40.054;4.110;2023-10-09T09:27:15;102753.44;;;23.99;100.00
73240;BME280;61452;40.054;4.110;2023-10-09T09:32:30;102755.16;;;24.00;100.00
73240;BME280;61452;40.054;4.110;2023-10-09T09:37:40;102750.88;;;23.98;100.00
73240;BME280;61452;40.054;4.110;2023-10-09T09:42:46;102757.84;;;24.00;100.00
73240;BME280;61452;40.054;4.110;2023-10-09T09:47:52;102748.94;;;24.00;100.00
73240;BME280;61452;40.054;4.110;2023-10-09T09:52:56;102748.94;;;24.00;100.00
73240;BME280;61452;40.054;4.110;2023-10-09T09:58:02;102742.59;;;24.01;100.00
73240;BME280;61452;40.054;4.110;2023-10-09T10:03:30;102738.22;;;24.00;100.00
73240;BME280;61452;40.054;4.110;2023-10-09T10:08:35;102740.66;;;24.03;100.00
73240;BME280;61452;40.054;4.110;2023-10-09T10:29:32;102724.66;;;24.01;100.00
73240;BME280;61452;40.054;4.110;2023-10-09T10:34:54;102731.03;;;24.00;100.00
73240;BME280;61452;40.054;4.110;2023-10-09T10:40:00;102729.19;;;24.01;100.00
73240;BME280;61452;40.054;4.110;2023-10-09T10:45:04;102723.69;;;24.02;100.00
73240;BME280;61452;40.054;4.110;2023-10-09T10:50:26;102727.25;;;24.03;100.00
73240;BME280;61452;40.054;4.110;2023-10-09T10:55:31;102723.50;;;24.05;100.00
73240;BME280;61452;40.054;4.110;2023-10-09T11:00:33;102726.16;;;24.05;100.00
73240;BME280;61452;40.054;4.110;2023-10-09T11:05:54;102720.91;;;24.04;100.00
73240;BME280;61452;40.054;4.110;2023-10-09T11:11:11;102711.91;;;24.05;100.00
73240;BME280;61452;40.054;4.110;2023-10-09T11:16:18;102710.09;;;24.05;100.00
73240;BME280;61452;40.054;4.110;2023-10-09T11:21:39;102703.97;;;24.03;100.00
73240;BME280;61452;40.054;4.110;2023-10-09T11:26:45;102701.06;;;24.06;100.00
73240;BME280;61452;40.054;4.110;2023-10-09T11:32:06;102694.84;;;24.06;100.00
73240;BME280;61452;40.054;4.110;2023-10-09T11:42:14;102679.63;;;24.06;100.00
73240;BME280;61452;40.054;4.110;2023-10-09T11:47:16;102673.41;;;24.06;100.00
73240;BME280;61452;40.054;4.110;2023-10-09T11:52:22;102667.06;;;24.07;100.00
73240;BME280;61452;40.054;4.110;2023-10-09T11:57:34;102652.81;;;24.06;100.00
73240;BME280;61452;40.054;4.110;2023-10-09T12:02:37;102659.63;;;24.10;100.00
73240;BME280;61452;40.054;4.110;2023-10-09T12:07:47;102656.22;;;24.08;100.00
73240;BME280;61452;40.054;4.110;2023-10-09T12:12:55;102649.03;;;24.09;100.00
73240;BME280;61452;40.054;4.110;2023-10-09T12:18:01;102645.47;;;24.08;100.00
73240;BME280;61452;40.054;4.110;2023-10-09T12:23:03;102643.66;;;24.09;100.00
73240;BME280;61452;40.054;4.110;2023-10-09T12:28:09;102638.28;;;24.09;100.00
73240;BME280;61452;40.054;4.110;2023-10-09T12:33:14;102640.00;;;24.10;100.00
73240;BME280;61452;40.054;4.110;2023-10-09T12:38:17;102632.72;;;24.12;100.00
73240;BME280;61452;40.054;4.110;2023-10-09T12:43:24;102625.53;;;24.12;100.00
73240;BME280;61452;40.054;4.110;2023-10-09T12:48:29;102617.50;;;24.12;100.00
73240;BME280;61452;40.054;4.110;2023-10-09T12:53:33;102617.34;;;24.14;100.00
73240;BME280;61452;40.054;4.110;2023-10-09T12:58:36;102614.81;;;24.12;100.00
73240;BME280;61452;40.054;4.110;2023-10-09T13:03:42;102615.53;;;24.14;100.00
73240;BME280;61452;40.054;4.110;2023-10-09T13:08:44;102609.28;;;24.14;100.00
73240;BME280;61452;40.054;4.110;2023-10-09T13:13:47;102600.41;;;24.13;100.00
73240;BME280;61452;40.054;4.110;2023-10-09T13:18:56;102602.25;;;24.13;100.00
73240;BME280;61452;40.054;4.110;2023-10-09T13:24:01;102594.06;;;24.14;100.00
73240;BME280;61452;40.054;4.110;2023-10-09T13:29:04;102599.31;;;24.16;100.00
73240;BME280;61452;40.054;4.110;2023-10-09T13:34:11;102592.13;;;24.16;100.00
73240;BME280;61452;40.054;4.110;2023-10-09T13:39:17;102584.09;;;24.16;100.00
73240;BME280;61452;40.054;4.110;2023-10-09T13:49:29;102581.41;;;24.16;100.00
73240;BME280;61452;40.054;4.110;2023-10-09T13:54:32;102575.06;;;24.17;100.00
73240;BME280;61452;40.054;4.110;2023-10-09T13:59:36;102573.25;;;24.18;100.00
73240;BME280;61452;40.054;4.110;2023-10-09T14:04:38;102575.00;;;24.19;100.00
73240;BME280;61452;40.054;4.110;2023-10-09T14:09:41;102566.81;;;24.21;100.00
73240;BME280;61452;40.054;4.110;2023-10-09T14:14:45;102569.38;;;24.22;100.00
73240;BME280;61452;40.054;4.110;2023-10-09T14:19:52;102562.31;;;24.21;100.00
73240;BME280;61452;40.054;4.110;2023-10-09T14:24:55;102561.34;;;24.22;100.00
73240;BME280;61452;40.054;4.110;2023-10-09T14:29:57;102548.88;;;24.21;100.00
73240;BME280;61452;40.054;4.110;2023-10-09T14:35:03;102552.31;;;24.23;100.00
73240;BME280;61452;40.054;4.110;2023-10-09T14:40:15;102555.00;;;24.23;100.00
73240;BME280;61452;40.054;4.110;2023-10-09T14:45:26;102554.03;;;24.24;100.00
73240;BME280;61452;40.054;4.110;2023-10-09T14:50:28;102546.84;;;24.25;100.00
73240;BME280;61452;40.054;4.110;2023-10-09T14:55:30;102543.31;;;24.24;100.00
73240;BME280;61452;40.054;4.110;2023-10-09T15:00:33;102537.09;;;24.24;100.00
73240;BME280;61452;40.054;4.110;2023-10-09T15:05:36;102544.00;;;24.26;100.00
73240;BME280;61452;40.054;4.110;2023-10-09T15:10:48;102549.28;;;24.28;100.00
73240;BME280;61452;40.054;4.110;2023-10-09T15:15:50;102541.34;;;24.26;100.00
73240;BME280;61452;40.054;4.110;2023-10-09T15:20:53;102546.59;;;24.28;100.00
73240;BME280;61452;40.054;4.110;2023-10-09T15:25:55;102545.72;;;24.27;100.00
73240;BME280;61452;40.054;4.110;2023-10-09T15:30:58;102542.94;;;24.29;100.00
73240;BME280;61452;40.054;4.110;2023-10-09T15:36:09;102541.22;;;24.28;100.00
73240;BME280;61452;40.054;4.110;2023-10-09T15:41:13;102537.69;;;24.27;100.00
73240;BME280;61452;40.054;4.110;2023-10-09T15:46:17;102539.41;;;24.28;100.00
73240;BME280;61452;40.054;4.110;2023-10-09T15:51:20;102538.44;;;24.29;100.00
73240;BME280;61452;40.054;4.110;2023-10-09T15:56:22;102546.47;;;24.29;100.00
73240;BME280;61452;40.054;4.110;2023-10-09T16:01:24;102545.63;;;24.29;100.00
73240;BME280;61452;40.054;4.110;2023-10-09T16:06:27;102535.75;;;24.29;100.00
73240;BME280;61452;40.054;4.110;2023-10-09T16:11:33;102540.16;;;24.30;100.00
73240;BME280;61452;40.054;4.110;2023-10-09T16:16:36;102535.75;;;24.29;100.00
73240;BME280;61452;40.054;4.110;2023-10-09T16:21:44;102536.50;;;24.31;100.00
73240;BME280;61452;40.054;4.110;2023-10-09T16:26:46;102540.16;;;24.30;100.00
73240;BME280;61452;40.054;4.110;2023-10-09T16:31:53;102542.81;;;24.30;100.00
73240;BME280;61452;40.054;4.110;2023-10-09T16:36:57;102535.75;;;24.29;100.00
73240;BME280;61452;40.054;4.110;2023-10-09T16:41:59;102543.69;;;24.31;100.00
73240;BME280;61452;40.054;4.110;2023-10-09T16:47:03;102548.06;;;24.32;100.00
73240;BME280;61452;40.054;4.110;2023-10-09T16:52:06;102548.06;;;24.32;100.00
73240;BME280;61452;40.054;4.110;2023-10-09T16:57:13;102551.59;;;24.32;100.00
73240;BME280;61452;40.054;4.110;2023-10-09T17:02:15;102548.06;;;24.32;100.00
73240;BME280;61452;40.054;4.110;2023-10-09T17:07:24;102544.66;;;24.30;100.00
73240;BME280;61452;40.054;4.110;2023-10-09T17:12:29;102545.50;;;24.30;100.00
73240;BME280;61452;40.054;4.110;2023-10-09T17:17:31;102542.81;;;24.30;100.00
73240;BME280;61452;40.054;4.110;2023-10-09T17:22:34;102548.06;;;24.32;100.00
73240;BME280;61452;40.054;4.110;2023-10-09T17:27:36;102543.69;;;24.31;100.00
73240;BME280;61452;40.054;4.110;2023-10-09T17:32:38;102548.19;;;24.30;100.00
73240;BME280;61452;40.054;4.110;2023-10-09T17:37:41;102558.06;;;24.30;100.00
73240;BME280;61452;40.054;4.110;2023-10-09T17:42:43;102556.22;;;24.30;100.00
73240;BME280;61452;40.054;4.110;2023-10-09T17:47:46;102562.56;;;24.29;100.00
73240;BME280;61452;40.054;4.110;2023-10-09T17:52:54;102558.91;;;24.30;100.00
73240;BME280;61452;40.054;4.110;2023-10-09T17:58:05;102567.81;;;24.31;100.00
73240;BME280;61452;40.054;4.110;2023-10-09T18:03:12;102565.25;;;24.29;100.00
73240;BME280;61452;40.054;4.110;2023-10-09T18:08:17;102572.44;;;24.29;100.00
73240;BME280;61452;40.054;4.110;2023-10-09T18:13:20;102559.25;;;24.26;100.00
73240;BME280;61452;40.054;4.110;2023-10-09T18:18:22;102559.88;;;24.29;100.00
73240;BME280;61452;40.054;4.110;2023-10-09T18:23:25;102554.75;;;24.26;100.00
73240;BME280;61452;40.054;4.110;2023-10-09T18:28:30;102559.13;;;24.27;100.00
73240;BME280;61452;40.054;4.110;2023-10-09T18:33:33;102551.09;;;24.27;100.00
73240;BME280;61452;40.054;4.110;2023-10-09T18:38:35;102556.56;;;24.26;100.00
73240;BME280;61452;40.054;4.110;2023-10-09T18:43:40;102553.78;;;24.27;100.00
73240;BME280;61452;40.054;4.110;2023-10-09T18:48:44;102556.47;;;24.27;100.00
73240;BME280;61452;40.054;4.110;2023-10-09T18:53:47;102564.50;;;24.27;100.00
73240;BME280;61452;40.054;4.110;2023-10-09T18:58:50;102556.47;;;24.27;100.00
73240;BME280;61452;40.054;4.110;2023-10-09T19:03:52;102553.78;;;24.27;100.00
73240;BME280;61452;40.054;4.110;2023-10-09T19:08:55;102554.63;;;24.28;100.00
73240;BME280;61452;40.054;4.110;2023-10-09T19:14:00;102562.78;;;24.26;100.00
73240;BME280;61452;40.054;4.110;2023-10-09T19:19:02;102555.75;;;24.25;100.00
73240;BME280;61452;40.054;4.110;2023-10-09T19:24:10;102561.22;;;24.24;100.00
73240;BME280;61452;40.054;4.110;2023-10-09T19:29:15;102569.28;;;24.24;100.00
73240;BME280;61452;40.054;4.110;2023-10-09T19:34:18;102569.28;;;24.24;100.00
73240;BME280;61452;40.054;4.110;2023-10-09T19:39:20;102568.41;;;24.23;100.00
73240;BME280;61452;40.054;4.110;2023-10-09T19:44:22;102575.50;;;24.24;100.00
73240;BME280;61452;40.054;4.110;2023-10-09T19:49:24;102576.47;;;24.23;100.00
73240;BME280;61452;40.054;4.110;2023-10-09T19:54:27;102577.44;;;24.22;100.00
73240;BME280;61452;40.054;4.110;2023-10-09T19:59:30;102577.31;;;24.24;100.00
73240;BME280;61452;40.054;4.110;2023-10-09T20:04:32;102589.88;;;24.23;100.00
73240;BME280;61452;40.054;4.110;2023-10-09T20:09:34;102586.31;;;24.23;100.00
73240;BME280;61452;40.054;4.110;2023-10-09T20:14:37;102590.94;;;24.21;100.00
73240;BME280;61452;40.054;4.110;2023-10-09T20:19:39;102596.19;;;24.22;100.00
73240;BME280;61452;40.054;4.110;2023-10-09T20:24:42;102591.69;;;24.23;100.00
73240;BME280;61452;40.054;4.110;2023-10-09T20:29:44;102590.09;;;24.20;100.00
73240;BME280;61452;40.054;4.110;2023-10-09T20:34:48;102595.34;;;24.22;100.00
73240;BME280;61452;40.054;4.110;2023-10-09T20:39:54;102595.59;;;24.18;100.00
73240;BME280;61452;40.054;4.110;2023-10-09T20:45:00;102597.06;;;24.23;100.00
73240;BME280;61452;40.054;4.110;2023-10-09T20:50:03;102594.47;;;24.21;100.00
73240;BME280;61452;40.054;4.110;2023-10-09T20:55:08;102596.19;;;24.22;100.00
73240;BME280;61452;40.054;4.110;2023-10-09T21:00:12;102594.59;;;24.19;100.00
73240;BME280;61452;40.054;4.110;2023-10-09T21:05:22;102596.19;;;24.22;100.00
73240;BME280;61452;40.054;4.110;2023-10-09T21:10:28;102599.00;;;24.21;100.00
73240;BME280;61452;40.054;4.110;2023-10-09T21:15:32;102600.97;;;24.18;100.00
73240;BME280;61452;40.054;4.110;2023-10-09T21:20:37;102599.13;;;24.19;100.00
73240;BME280;61452;40.054;4.110;2023-10-09T21:25:40;102591.09;;;24.19;100.00
73240;BME280;61452;40.054;4.110;2023-10-09T21:30:42;102590.09;;;24.20;100.00
73240;BME280;61452;40.054;4.110;2023-10-09T21:35:45;102587.41;;;24.20;100.00
73240;BME280;61452;40.054;4.110;2023-10-09T21:40:47;102592.78;;;24.20;100.00
73240;BME280;61452;40.054;4.110;2023-10-09T21:45:52;102600.69;;;24.22;100.00
73240;BME280;61452;40.054;4.110;2023-10-09T21:51:00;102594.59;;;24.19;100.00
73240;BME280;61452;40.054;4.110;2023-10-09T21:56:06;102596.44;;;24.19;100.00
73240;BME280;61452;40.054;4.110;2023-10-09T22:01:10;102590.22;;;24.18;100.00
73240;BME280;61452;40.054;4.110;2023-10-09T22:06:14;102595.59;;;24.18;100.00
73240;BME280;61452;40.054;4.110;2023-10-09T22:11:17;102590.22;;;24.18;100.00
73240;BME280;61452;40.054;4.110;2023-10-09T22:16:20;102586.66;;;24.18;100.00
73240;BME280;61452;40.054;4.110;2023-10-09T22:21:24;102591.09;;;24.19;100.00
73240;BME280;61452;40.054;4.110;2023-10-09T22:26:26;102583.97;;;24.18;100.00
73240;BME280;61452;40.054;4.110;2023-10-09T22:31:29;102587.53;;;24.18;100.00
73240;BME280;61452;40.054;4.110;2023-10-09T22:36:31;102590.31;;;24.17;100.00
73240;BME280;61452;40.054;4.110;2023-10-09T22:41:55;102583.22;;;24.16;100.00
73240;BME280;61452;40.054;4.110;2023-10-09T22:46:57;102582.25;;;24.17;100.00
73240;BME280;61452;40.054;4.110;2023-10-09T22:52:03;102580.44;;;24.17;100.00
73240;BME280;61452;40.054;4.110;2023-10-09T22:57:13;102571.66;;;24.15;100.00
73240;BME280;61452;40.054;4.110;2023-10-09T23:02:16;102569.81;;;24.16;100.00
73240;BME280;61452;40.054;4.110;2023-10-09T23:07:24;102565.44;;;24.15;100.00
73240;BME280;61452;40.054;4.110;2023-10-09T23:12:27;102553.00;;;24.14;100.00
73240;BME280;61452;40.054;4.110;2023-10-09T23:17:36;102556.53;;;24.14;100.00
73240;BME280;61452;40.054;4.110;2023-10-09T23:22:50;102552.13;;;24.13;100.00
73240;BME280;61452;40.054;4.110;2023-10-09T23:27:53;102546.66;;;24.15;100.00
73240;BME280;61452;40.054;4.110;2023-10-09T23:33:16;102551.31;;;24.13;100.00
73240;BME280;61452;40.054;4.110;2023-10-09T23:38:24;102547.63;;;24.14;100.00
73240;BME280;61452;40.054;4.110;2023-10-09T23:43:37;102543.25;;;24.13;100.00
73240;BME280;61452;40.054;4.110;2023-10-09T23:48:46;102547.88;;;24.11;100.00
73240;BME280;61452;40.054;4.110;2023-10-09T23:53:54;102547.88;;;24.11;100.00
73240;BME280;61452;40.054;4.110;2023-10-09T23:59:03;102542.41;;;24.12;100.00
